sensor_id;sensor_type;location;lat;lon;timestamp;temperature;humidity
15969;DHT22;8085;53.472;9.794;2022-08-21T00:01:30;21.50;1.00
15969;DHT22;8085;53.472;9.794;2022-08-21T00:04:04;21.50;6.30
15969;DHT22;8085;53.472;9.794;2022-08-21T00:06:31;21.50;1.00
15969;DHT22;8085;53.472;9.794;2022-08-21T00:08:59;21.50;17.90
15969;DHT22;8085;53.472;9.794;2022-08-21T00:11:26;21.50;7.30
15969;DHT22;8085;53.472;9.794;2022-08-21T00:13:53;21.50;8.70
15969;DHT22;8085;53.472;9.794;2022-08-21T00:16:20;21.50;38.50
15969;DHT22;8085;53.472;9.794;2022-08-21T00:18:48;21.50;64.20
15969;DHT22;8085;53.472;9.794;2022-08-21T00:21:16;21.50;54.40
15969;DHT22;8085;53.472;9.794;2022-08-21T00:23:43;21.40;48.00
15969;DHT22;8085;53.472;9.794;2022-08-21T00:26:10;21.40;99.90
15969;DHT22;8085;53.472;9.794;2022-08-21T00:28:37;21.40;97.60
15969;DHT22;8085;53.472;9.794;2022-08-21T00:31:04;21.40;62.20
15969;DHT22;8085;53.472;9.794;2022-08-21T00:33:32;21.40;55.90
15969;DHT22;8085;53.472;9.794;2022-08-21T00:35:59;21.40;84.80
15969;DHT22;8085;53.472;9.794;2022-08-21T00:38:28;21.40;92.40
15969;DHT22;8085;53.472;9.794;2022-08-21T00:40:58;21.40;58.80
15969;DHT22;8085;53.472;9.794;2022-08-21T00:43:33;21.40;71.10
15969;DHT22;8085;53.472;9.794;2022-08-21T00:46:01;21.30;98.50
15969;DHT22;8085;53.472;9.794;2022-08-21T00:48:28;21.30;83.20
15969;DHT22;8085;53.472;9.794;2022-08-21T00:50:58;21.30;63.80
15969;DHT22;8085;53.472;9.794;2022-08-21T00:53:28;21.30;94.90
15969;DHT22;8085;53.472;9.794;2022-08-21T00:55:56;21.30;98.30
15969;DHT22;8085;53.472;9.794;2022-08-21T00:58:24;21.30;95.40
15969;DHT22;8085;53.472;9.794;2022-08-21T01:00:53;21.30;84.90
15969;DHT22;8085;53.472;9.794;2022-08-21T01:03:22;21.30;79.30
15969;DHT22;8085;53.472;9.794;2022-08-21T01:05:50;21.30;51.20
15969;DHT22;8085;53.472;9.794;2022-08-21T01:08:18;21.20;36.00
15969;DHT22;8085;53.472;9.794;2022-08-21T01:10:48;21.20;94.10
15969;DHT22;8085;53.472;9.794;2022-08-21T01:13:17;21.00;31.40
15969;DHT22;8085;53.472;9.794;2022-08-21T01:15:46;20.70;1.00
15969;DHT22;8085;53.472;9.794;2022-08-21T01:18:15;20.90;1.00
15969;DHT22;8085;53.472;9.794;2022-08-21T01:20:44;21.00;99.90
15969;DHT22;8085;53.472;9.794;2022-08-21T01:23:13;21.00;99.90
15969;DHT22;8085;53.472;9.794;2022-08-21T01:25:40;21.00;99.90
15969;DHT22;8085;53.472;9.794;2022-08-21T01:28:12;21.00;99.90
15969;DHT22;8085;53.472;9.794;2022-08-21T01:30:40;21.00;99.90
15969;DHT22;8085;53.472;9.794;2022-08-21T01:33:08;21.00;99.90
15969;DHT22;8085;53.472;9.794;2022-08-21T01:35:35;21.10;99.90
15969;DHT22;8085;53.472;9.794;2022-08-21T01:38:03;21.10;99.90
15969;DHT22;8085;53.472;9.794;2022-08-21T01:40:31;21.00;99.90
15969;DHT22;8085;53.472;9.794;2022-08-21T01:42:58;21.00;99.90
15969;DHT22;8085;53.472;9.794;2022-08-21T01:45:25;21.00;99.90
15969;DHT22;8085;53.472;9.794;2022-08-21T01:47:52;21.00;99.90
15969;DHT22;8085;53.472;9.794;2022-08-21T01:50:20;21.00;99.90
15969;DHT22;8085;53.472;9.794;2022-08-21T01:52:47;21.00;99.90
15969;DHT22;8085;53.472;9.794;2022-08-21T01:55:15;21.00;99.90
15969;DHT22;8085;53.472;9.794;2022-08-21T01:57:46;21.00;99.90
15969;DHT22;8085;53.472;9.794;2022-08-21T02:00:14;21.00;99.90
15969;DHT22;8085;53.472;9.794;2022-08-21T02:02:42;21.00;99.90
15969;DHT22;8085;53.472;9.794;2022-08-21T02:05:11;21.00;99.90
15969;DHT22;8085;53.472;9.794;2022-08-21T02:07:39;21.00;99.90
15969;DHT22;8085;53.472;9.794;2022-08-21T02:10:08;21.00;99.90
15969;DHT22;8085;53.472;9.794;2022-08-21T02:12:35;21.00;99.90
15969;DHT22;8085;53.472;9.794;2022-08-21T02:15:05;21.00;99.90
15969;DHT22;8085;53.472;9.794;2022-08-21T02:17:38;21.00;99.90
15969;DHT22;8085;53.472;9.794;2022-08-21T02:20:06;21.00;99.90
15969;DHT22;8085;53.472;9.794;2022-08-21T02:22:33;21.00;99.90
15969;DHT22;8085;53.472;9.794;2022-08-21T02:25:00;21.00;99.90
15969;DHT22;8085;53.472;9.794;2022-08-21T02:27:27;21.00;99.90
15969;DHT22;8085;53.472;9.794;2022-08-21T02:29:55;21.00;99.90
15969;DHT22;8085;53.472;9.794;2022-08-21T02:32:24;21.00;99.90
15969;DHT22;8085;53.472;9.794;2022-08-21T02:34:51;21.00;99.90
15969;DHT22;8085;53.472;9.794;2022-08-21T02:37:17;21.00;99.90
15969;DHT22;8085;53.472;9.794;2022-08-21T02:39:44;21.00;99.90
15969;DHT22;8085;53.472;9.794;2022-08-21T02:42:11;20.90;99.90
15969;DHT22;8085;53.472;9.794;2022-08-21T02:44:38;20.90;99.90
15969;DHT22;8085;53.472;9.794;2022-08-21T02:47:05;20.90;99.90
15969;DHT22;8085;53.472;9.794;2022-08-21T02:49:34;20.90;99.90
15969;DHT22;8085;53.472;9.794;2022-08-21T02:52:01;20.90;99.90
15969;DHT22;8085;53.472;9.794;2022-08-21T02:54:27;20.90;99.90
15969;DHT22;8085;53.472;9.794;2022-08-21T02:56:54;20.90;99.90
15969;DHT22;8085;53.472;9.794;2022-08-21T02:59:21;20.90;99.90
15969;DHT22;8085;53.472;9.794;2022-08-21T03:01:48;20.90;99.90
15969;DHT22;8085;53.472;9.794;2022-08-21T03:04:15;20.80;99.90
15969;DHT22;8085;53.472;9.794;2022-08-21T03:06:43;20.80;99.90
15969;DHT22;8085;53.472;9.794;2022-08-21T03:09:10;20.80;99.90
15969;DHT22;8085;53.472;9.794;2022-08-21T03:11:37;20.80;99.90
15969;DHT22;8085;53.472;9.794;2022-08-21T03:14:04;20.80;99.90
15969;DHT22;8085;53.472;9.794;2022-08-21T03:16:31;20.80;99.90
15969;DHT22;8085;53.472;9.794;2022-08-21T03:18:58;20.80;99.90
15969;DHT22;8085;53.472;9.794;2022-08-21T03:21:25;20.70;99.90
15969;DHT22;8085;53.472;9.794;2022-08-21T03:23:55;20.70;99.90
15969;DHT22;8085;53.472;9.794;2022-08-21T03:26:22;20.70;99.90
15969;DHT22;8085;53.472;9.794;2022-08-21T03:28:49;20.70;99.90
15969;DHT22;8085;53.472;9.794;2022-08-21T03:31:17;20.70;99.90
15969;DHT22;8085;53.472;9.794;2022-08-21T03:33:44;20.50;99.90
15969;DHT22;8085;53.472;9.794;2022-08-21T03:36:10;20.30;1.00
15969;DHT22;8085;53.472;9.794;2022-08-21T03:38:37;20.50;99.90
15969;DHT22;8085;53.472;9.794;2022-08-21T03:41:06;20.60;99.90
15969;DHT22;8085;53.472;9.794;2022-08-21T03:43:34;20.60;99.90
15969;DHT22;8085;53.472;9.794;2022-08-21T03:46:03;20.60;99.90
15969;DHT22;8085;53.472;9.794;2022-08-21T03:48:30;20.60;99.90
15969;DHT22;8085;53.472;9.794;2022-08-21T03:50:57;20.60;99.90
15969;DHT22;8085;53.472;9.794;2022-08-21T03:53:24;20.60;99.90
15969;DHT22;8085;53.472;9.794;2022-08-21T03:55:51;20.50;99.90
15969;DHT22;8085;53.472;9.794;2022-08-21T03:58:23;20.50;99.90
15969;DHT22;8085;53.472;9.794;2022-08-21T04:00:53;20.50;99.90
15969;DHT22;8085;53.472;9.794;2022-08-21T04:03:21;20.50;99.90
15969;DHT22;8085;53.472;9.794;2022-08-21T04:05:48;20.50;99.90
15969;DHT22;8085;53.472;9.794;2022-08-21T04:08:16;20.50;99.90
15969;DHT22;8085;53.472;9.794;2022-08-21T04:10:46;20.40;99.90
15969;DHT22;8085;53.472;9.794;2022-08-21T04:13:13;20.40;99.90
15969;DHT22;8085;53.472;9.794;2022-08-21T04:15:42;20.40;99.90
15969;DHT22;8085;53.472;9.794;2022-08-21T04:18:10;20.40;99.90
15969;DHT22;8085;53.472;9.794;2022-08-21T04:20:37;20.40;99.90
15969;DHT22;8085;53.472;9.794;2022-08-21T04:23:04;20.40;99.90
15969;DHT22;8085;53.472;9.794;2022-08-21T04:25:31;20.40;99.90
15969;DHT22;8085;53.472;9.794;2022-08-21T04:27:58;20.40;99.90
15969;DHT22;8085;53.472;9.794;2022-08-21T04:30:25;20.40;99.90
15969;DHT22;8085;53.472;9.794;2022-08-21T04:32:53;20.40;99.90
15969;DHT22;8085;53.472;9.794;2022-08-21T04:35:21;20.30;99.90
15969;DHT22;8085;53.472;9.794;2022-08-21T04:37:49;20.30;99.90
15969;DHT22;8085;53.472;9.794;2022-08-21T04:40:17;20.30;99.90
15969;DHT22;8085;53.472;9.794;2022-08-21T04:42:47;20.30;99.90
15969;DHT22;8085;53.472;9.794;2022-08-21T04:45:21;20.30;99.90
15969;DHT22;8085;53.472;9.794;2022-08-21T04:47:50;20.30;99.90
15969;DHT22;8085;53.472;9.794;2022-08-21T04:50:19;20.30;99.90
15969;DHT22;8085;53.472;9.794;2022-08-21T04:52:46;20.30;99.90
15969;DHT22;8085;53.472;9.794;2022-08-21T04:55:15;20.30;99.90
15969;DHT22;8085;53.472;9.794;2022-08-21T04:57:43;20.30;99.90
15969;DHT22;8085;53.472;9.794;2022-08-21T05:00:11;20.30;99.90
15969;DHT22;8085;53.472;9.794;2022-08-21T05:02:39;20.30;99.90
15969;DHT22;8085;53.472;9.794;2022-08-21T05:05:07;20.30;99.90
15969;DHT22;8085;53.472;9.794;2022-08-21T05:07:36;20.30;99.90
15969;DHT22;8085;53.472;9.794;2022-08-21T05:10:04;20.30;99.90
15969;DHT22;8085;53.472;9.794;2022-08-21T05:12:33;20.30;99.90
15969;DHT22;8085;53.472;9.794;2022-08-21T05:15:01;20.30;99.90
15969;DHT22;8085;53.472;9.794;2022-08-21T05:17:28;20.30;99.90
15969;DHT22;8085;53.472;9.794;2022-08-21T05:19:55;20.30;99.90
15969;DHT22;8085;53.472;9.794;2022-08-21T05:22:23;20.30;99.90
15969;DHT22;8085;53.472;9.794;2022-08-21T05:24:52;20.30;99.90
15969;DHT22;8085;53.472;9.794;2022-08-21T05:27:19;20.40;99.90
15969;DHT22;8085;53.472;9.794;2022-08-21T05:29:46;20.40;99.90
15969;DHT22;8085;53.472;9.794;2022-08-21T05:32:13;20.40;99.90
15969;DHT22;8085;53.472;9.794;2022-08-21T05:34:40;20.40;99.90
15969;DHT22;8085;53.472;9.794;2022-08-21T05:37:10;20.40;99.90
15969;DHT22;8085;53.472;9.794;2022-08-21T05:39:37;20.30;99.90
15969;DHT22;8085;53.472;9.794;2022-08-21T05:42:05;20.40;99.90
15969;DHT22;8085;53.472;9.794;2022-08-21T05:44:32;20.30;99.90
15969;DHT22;8085;53.472;9.794;2022-08-21T05:47:03;20.30;99.90
15969;DHT22;8085;53.472;9.794;2022-08-21T05:49:30;20.30;99.90
15969;DHT22;8085;53.472;9.794;2022-08-21T05:51:57;20.40;1.00
15969;DHT22;8085;53.472;9.794;2022-08-21T05:54:24;20.40;1.00
15969;DHT22;8085;53.472;9.794;2022-08-21T05:56:51;20.40;1.00
15969;DHT22;8085;53.472;9.794;2022-08-21T05:59:19;20.40;1.00
15969;DHT22;8085;53.472;9.794;2022-08-21T06:01:47;20.40;1.00
15969;DHT22;8085;53.472;9.794;2022-08-21T06:04:13;20.40;1.00
15969;DHT22;8085;53.472;9.794;2022-08-21T06:06:40;20.40;1.00
15969;DHT22;8085;53.472;9.794;2022-08-21T06:09:07;20.40;1.00
15969;DHT22;8085;53.472;9.794;2022-08-21T06:11:34;20.40;1.00
15969;DHT22;8085;53.472;9.794;2022-08-21T06:14:01;20.40;1.00
15969;DHT22;8085;53.472;9.794;2022-08-21T06:16:30;20.40;1.00
15969;DHT22;8085;53.472;9.794;2022-08-21T06:18:56;20.40;1.00
15969;DHT22;8085;53.472;9.794;2022-08-21T06:21:23;20.40;1.00
15969;DHT22;8085;53.472;9.794;2022-08-21T06:23:50;20.50;1.00
15969;DHT22;8085;53.472;9.794;2022-08-21T06:26:17;20.50;1.00
15969;DHT22;8085;53.472;9.794;2022-08-21T06:28:44;20.50;1.00
15969;DHT22;8085;53.472;9.794;2022-08-21T06:31:13;20.50;1.00
15969;DHT22;8085;53.472;9.794;2022-08-21T06:33:42;20.50;96.50
15969;DHT22;8085;53.472;9.794;2022-08-21T06:36:09;20.60;99.90
15969;DHT22;8085;53.472;9.794;2022-08-21T06:38:36;20.70;99.90
15969;DHT22;8085;53.472;9.794;2022-08-21T06:41:03;20.60;99.90
15969;DHT22;8085;53.472;9.794;2022-08-21T06:43:30;20.50;1.00
15969;DHT22;8085;53.472;9.794;2022-08-21T06:45:57;20.50;1.00
15969;DHT22;8085;53.472;9.794;2022-08-21T06:48:24;20.40;1.00
15969;DHT22;8085;53.472;9.794;2022-08-21T06:50:52;20.20;99.90
15969;DHT22;8085;53.472;9.794;2022-08-21T06:53:20;20.20;69.90
15969;DHT22;8085;53.472;9.794;2022-08-21T06:55:48;20.20;1.00
15969;DHT22;8085;53.472;9.794;2022-08-21T06:58:16;20.30;1.00
15969;DHT22;8085;53.472;9.794;2022-08-21T07:00:45;20.20;1.00
15969;DHT22;8085;53.472;9.794;2022-08-21T07:03:19;20.20;1.00
15969;DHT22;8085;53.472;9.794;2022-08-21T07:05:47;20.30;1.00
15969;DHT22;8085;53.472;9.794;2022-08-21T07:08:15;20.30;1.00
15969;DHT22;8085;53.472;9.794;2022-08-21T07:10:43;20.30;1.00
15969;DHT22;8085;53.472;9.794;2022-08-21T07:13:10;20.40;1.00
15969;DHT22;8085;53.472;9.794;2022-08-21T07:15:37;20.40;1.00
15969;DHT22;8085;53.472;9.794;2022-08-21T07:18:04;20.40;1.00
15969;DHT22;8085;53.472;9.794;2022-08-21T07:20:32;20.50;1.00
15969;DHT22;8085;53.472;9.794;2022-08-21T07:23:02;20.40;1.00
15969;DHT22;8085;53.472;9.794;2022-08-21T07:25:31;20.50;1.00
15969;DHT22;8085;53.472;9.794;2022-08-21T07:27:58;20.60;1.00
15969;DHT22;8085;53.472;9.794;2022-08-21T07:30:25;20.70;1.00
15969;DHT22;8085;53.472;9.794;2022-08-21T07:32:52;20.60;1.00
15969;DHT22;8085;53.472;9.794;2022-08-21T07:35:19;20.70;99.90
15969;DHT22;8085;53.472;9.794;2022-08-21T07:37:47;20.70;1.00
15969;DHT22;8085;53.472;9.794;2022-08-21T07:40:14;20.70;1.00
15969;DHT22;8085;53.472;9.794;2022-08-21T07:42:45;20.80;99.90
15969;DHT22;8085;53.472;9.794;2022-08-21T07:45:13;20.70;1.00
15969;DHT22;8085;53.472;9.794;2022-08-21T07:47:41;20.70;1.00
15969;DHT22;8085;53.472;9.794;2022-08-21T07:50:08;20.60;1.00
15969;DHT22;8085;53.472;9.794;2022-08-21T07:52:36;20.60;35.60
15969;DHT22;8085;53.472;9.794;2022-08-21T07:55:04;20.60;99.90
15969;DHT22;8085;53.472;9.794;2022-08-21T07:57:31;20.50;1.00
15969;DHT22;8085;53.472;9.794;2022-08-21T07:59:59;20.50;1.00
15969;DHT22;8085;53.472;9.794;2022-08-21T08:02:28;20.60;99.90
15969;DHT22;8085;53.472;9.794;2022-08-21T08:04:58;20.60;1.00
15969;DHT22;8085;53.472;9.794;2022-08-21T08:07:25;20.50;99.90
15969;DHT22;8085;53.472;9.794;2022-08-21T08:09:52;20.50;99.90
15969;DHT22;8085;53.472;9.794;2022-08-21T08:12:19;20.50;99.90
15969;DHT22;8085;53.472;9.794;2022-08-21T08:14:46;20.50;99.90
15969;DHT22;8085;53.472;9.794;2022-08-21T08:17:14;20.60;99.90
15969;DHT22;8085;53.472;9.794;2022-08-21T08:19:41;20.60;99.90
15969;DHT22;8085;53.472;9.794;2022-08-21T08:22:15;20.60;99.90
15969;DHT22;8085;53.472;9.794;2022-08-21T08:24:42;20.60;1.00
15969;DHT22;8085;53.472;9.794;2022-08-21T08:27:09;20.70;1.00
15969;DHT22;8085;53.472;9.794;2022-08-21T08:29:36;20.70;17.20
15969;DHT22;8085;53.472;9.794;2022-08-21T08:32:04;20.70;72.50
15969;DHT22;8085;53.472;9.794;2022-08-21T08:34:34;20.70;1.00
15969;DHT22;8085;53.472;9.794;2022-08-21T08:37:02;20.70;1.00
15969;DHT22;8085;53.472;9.794;2022-08-21T08:39:29;20.70;1.00
15969;DHT22;8085;53.472;9.794;2022-08-21T08:41:59;20.70;99.90
15969;DHT22;8085;53.472;9.794;2022-08-21T08:44:30;20.70;99.90
15969;DHT22;8085;53.472;9.794;2022-08-21T08:46:57;20.70;99.90
15969;DHT22;8085;53.472;9.794;2022-08-21T08:49:31;20.80;99.90
15969;DHT22;8085;53.472;9.794;2022-08-21T08:52:05;21.10;99.90
15969;DHT22;8085;53.472;9.794;2022-08-21T08:54:38;21.30;1.00
15969;DHT22;8085;53.472;9.794;2022-08-21T08:57:09;21.20;1.00
15969;DHT22;8085;53.472;9.794;2022-08-21T08:59:41;21.10;1.00
15969;DHT22;8085;53.472;9.794;2022-08-21T09:02:10;21.00;1.00
15969;DHT22;8085;53.472;9.794;2022-08-21T09:04:37;21.00;74.40
15969;DHT22;8085;53.472;9.794;2022-08-21T09:07:14;21.00;1.00
15969;DHT22;8085;53.472;9.794;2022-08-21T09:09:51;21.10;1.00
15969;DHT22;8085;53.472;9.794;2022-08-21T09:12:31;21.10;1.00
15969;DHT22;8085;53.472;9.794;2022-08-21T09:15:09;21.10;1.00
15969;DHT22;8085;53.472;9.794;2022-08-21T09:17:52;21.20;1.00
15969;DHT22;8085;53.472;9.794;2022-08-21T09:20:29;21.30;1.00
15969;DHT22;8085;53.472;9.794;2022-08-21T09:23:08;21.30;1.00
15969;DHT22;8085;53.472;9.794;2022-08-21T09:25:43;21.30;1.00
15969;DHT22;8085;53.472;9.794;2022-08-21T09:28:12;21.30;1.00
15969;DHT22;8085;53.472;9.794;2022-08-21T09:30:40;21.30;1.00
15969;DHT22;8085;53.472;9.794;2022-08-21T09:33:08;21.30;99.90
15969;DHT22;8085;53.472;9.794;2022-08-21T09:35:48;21.30;99.90
15969;DHT22;8085;53.472;9.794;2022-08-21T09:38:26;21.40;99.90
15969;DHT22;8085;53.472;9.794;2022-08-21T09:40:58;21.40;99.90
15969;DHT22;8085;53.472;9.794;2022-08-21T09:43:26;21.50;99.90
15969;DHT22;8085;53.472;9.794;2022-08-21T09:46:04;21.60;1.00
15969;DHT22;8085;53.472;9.794;2022-08-21T09:48:39;21.60;1.00
15969;DHT22;8085;53.472;9.794;2022-08-21T09:51:09;21.60;1.00
15969;DHT22;8085;53.472;9.794;2022-08-21T09:53:42;21.60;1.00
15969;DHT22;8085;53.472;9.794;2022-08-21T09:56:18;21.60;1.00
15969;DHT22;8085;53.472;9.794;2022-08-21T09:59:14;21.70;1.00
15969;DHT22;8085;53.472;9.794;2022-08-21T10:01:43;21.70;1.00
15969;DHT22;8085;53.472;9.794;2022-08-21T10:04:12;21.70;99.90
15969;DHT22;8085;53.472;9.794;2022-08-21T10:06:39;21.70;98.90
15969;DHT22;8085;53.472;9.794;2022-08-21T10:09:09;21.80;99.90
15969;DHT22;8085;53.472;9.794;2022-08-21T10:11:36;21.80;99.90
15969;DHT22;8085;53.472;9.794;2022-08-21T10:14:13;21.90;99.90
15969;DHT22;8085;53.472;9.794;2022-08-21T10:16:53;21.80;5.40
15969;DHT22;8085;53.472;9.794;2022-08-21T10:19:28;21.80;1.00
15969;DHT22;8085;53.472;9.794;2022-08-21T10:22:02;21.70;1.00
15969;DHT22;8085;53.472;9.794;2022-08-21T10:24:36;21.70;1.00
15969;DHT22;8085;53.472;9.794;2022-08-21T10:27:16;21.80;1.00
15969;DHT22;8085;53.472;9.794;2022-08-21T10:29:51;21.80;1.00
15969;DHT22;8085;53.472;9.794;2022-08-21T10:32:31;21.70;1.00
15969;DHT22;8085;53.472;9.794;2022-08-21T10:35:08;21.70;99.90
15969;DHT22;8085;53.472;9.794;2022-08-21T10:37:48;21.70;99.90
15969;DHT22;8085;53.472;9.794;2022-08-21T10:40:24;21.70;99.90
15969;DHT22;8085;53.472;9.794;2022-08-21T10:43:02;21.80;99.90
15969;DHT22;8085;53.472;9.794;2022-08-21T10:45:41;21.80;99.90
15969;DHT22;8085;53.472;9.794;2022-08-21T10:48:15;21.80;99.90
15969;DHT22;8085;53.472;9.794;2022-08-21T10:50:48;21.80;99.90
15969;DHT22;8085;53.472;9.794;2022-08-21T10:53:32;21.80;99.90
15969;DHT22;8085;53.472;9.794;2022-08-21T10:56:13;21.80;99.90
15969;DHT22;8085;53.472;9.794;2022-08-21T10:58:47;21.80;99.90
15969;DHT22;8085;53.472;9.794;2022-08-21T11:01:20;21.90;99.90
15969;DHT22;8085;53.472;9.794;2022-08-21T11:03:53;21.80;99.90
15969;DHT22;8085;53.472;9.794;2022-08-21T11:06:23;21.80;96.40
15969;DHT22;8085;53.472;9.794;2022-08-21T11:08:53;21.90;1.00
15969;DHT22;8085;53.472;9.794;2022-08-21T11:11:26;21.90;1.00
15969;DHT22;8085;53.472;9.794;2022-08-21T11:13:56;22.00;1.00
15969;DHT22;8085;53.472;9.794;2022-08-21T11:16:31;22.10;1.00
15969;DHT22;8085;53.472;9.794;2022-08-21T11:19:04;22.10;1.00
15969;DHT22;8085;53.472;9.794;2022-08-21T11:21:38;22.00;1.00
15969;DHT22;8085;53.472;9.794;2022-08-21T11:24:23;22.00;1.00
15969;DHT22;8085;53.472;9.794;2022-08-21T11:26:59;22.00;1.00
15969;DHT22;8085;53.472;9.794;2022-08-21T11:29:29;22.10;1.00
15969;DHT22;8085;53.472;9.794;2022-08-21T11:32:11;22.10;1.00
15969;DHT22;8085;53.472;9.794;2022-08-21T11:34:50;22.10;1.00
15969;DHT22;8085;53.472;9.794;2022-08-21T11:37:36;22.20;1.00
15969;DHT22;8085;53.472;9.794;2022-08-21T11:40:27;22.20;1.00
15969;DHT22;8085;53.472;9.794;2022-08-21T11:43:06;22.20;1.00
15969;DHT22;8085;53.472;9.794;2022-08-21T11:45:40;22.10;1.00
15969;DHT22;8085;53.472;9.794;2022-08-21T11:48:16;22.20;1.00
15969;DHT22;8085;53.472;9.794;2022-08-21T11:50:51;22.30;1.00
15969;DHT22;8085;53.472;9.794;2022-08-21T11:53:21;22.30;1.00
15969;DHT22;8085;53.472;9.794;2022-08-21T11:55:55;22.20;1.00
15969;DHT22;8085;53.472;9.794;2022-08-21T11:58:28;22.30;1.00
15969;DHT22;8085;53.472;9.794;2022-08-21T12:00:59;22.30;1.00
15969;DHT22;8085;53.472;9.794;2022-08-21T12:03:30;22.20;1.00
15969;DHT22;8085;53.472;9.794;2022-08-21T12:06:01;22.20;1.00
15969;DHT22;8085;53.472;9.794;2022-08-21T12:08:31;22.20;1.00
15969;DHT22;8085;53.472;9.794;2022-08-21T12:11:02;22.20;1.00
15969;DHT22;8085;53.472;9.794;2022-08-21T12:13:33;22.20;1.00
15969;DHT22;8085;53.472;9.794;2022-08-21T12:16:28;22.20;1.00
15969;DHT22;8085;53.472;9.794;2022-08-21T12:19:03;22.30;99.90
15969;DHT22;8085;53.472;9.794;2022-08-21T12:21:31;22.40;99.90
15969;DHT22;8085;53.472;9.794;2022-08-21T12:24:03;22.40;99.90
15969;DHT22;8085;53.472;9.794;2022-08-21T12:26:33;22.40;99.90
15969;DHT22;8085;53.472;9.794;2022-08-21T12:29:16;22.50;99.90
15969;DHT22;8085;53.472;9.794;2022-08-21T12:31:53;22.60;99.90
15969;DHT22;8085;53.472;9.794;2022-08-21T12:34:20;22.50;99.90
15969;DHT22;8085;53.472;9.794;2022-08-21T12:36:53;22.50;99.90
15969;DHT22;8085;53.472;9.794;2022-08-21T12:39:24;22.40;99.90
15969;DHT22;8085;53.472;9.794;2022-08-21T12:41:56;22.40;99.90
15969;DHT22;8085;53.472;9.794;2022-08-21T12:44:31;22.40;99.90
15969;DHT22;8085;53.472;9.794;2022-08-21T12:47:04;22.40;99.90
15969;DHT22;8085;53.472;9.794;2022-08-21T12:49:35;22.50;99.90
15969;DHT22;8085;53.472;9.794;2022-08-21T12:52:09;22.60;99.90
15969;DHT22;8085;53.472;9.794;2022-08-21T12:54:39;22.60;99.90
15969;DHT22;8085;53.472;9.794;2022-08-21T12:57:07;22.70;99.90
15969;DHT22;8085;53.472;9.794;2022-08-21T12:59:38;22.70;99.90
15969;DHT22;8085;53.472;9.794;2022-08-21T13:02:15;22.70;99.90
15969;DHT22;8085;53.472;9.794;2022-08-21T13:04:44;22.70;99.90
15969;DHT22;8085;53.472;9.794;2022-08-21T13:07:15;22.60;99.90
15969;DHT22;8085;53.472;9.794;2022-08-21T13:09:47;22.70;99.90
15969;DHT22;8085;53.472;9.794;2022-08-21T13:12:16;22.90;99.90
15969;DHT22;8085;53.472;9.794;2022-08-21T13:14:46;23.00;99.90
15969;DHT22;8085;53.472;9.794;2022-08-21T13:17:16;23.00;99.90
15969;DHT22;8085;53.472;9.794;2022-08-21T13:19:53;22.90;99.90
15969;DHT22;8085;53.472;9.794;2022-08-21T13:22:20;22.90;99.90
15969;DHT22;8085;53.472;9.794;2022-08-21T13:24:47;22.80;99.90
15969;DHT22;8085;53.472;9.794;2022-08-21T13:27:18;22.80;99.90
15969;DHT22;8085;53.472;9.794;2022-08-21T13:29:47;22.80;99.90
15969;DHT22;8085;53.472;9.794;2022-08-21T13:32:21;22.70;99.90
15969;DHT22;8085;53.472;9.794;2022-08-21T13:34:49;22.60;99.90
15969;DHT22;8085;53.472;9.794;2022-08-21T13:37:17;22.80;99.90
15969;DHT22;8085;53.472;9.794;2022-08-21T13:39:49;22.90;99.90
15969;DHT22;8085;53.472;9.794;2022-08-21T13:42:17;22.90;99.90
15969;DHT22;8085;53.472;9.794;2022-08-21T13:44:47;23.10;99.90
15969;DHT22;8085;53.472;9.794;2022-08-21T13:47:16;23.10;99.90
15969;DHT22;8085;53.472;9.794;2022-08-21T13:49:46;23.20;99.90
15969;DHT22;8085;53.472;9.794;2022-08-21T13:52:15;23.30;99.90
15969;DHT22;8085;53.472;9.794;2022-08-21T13:54:43;23.50;99.90
15969;DHT22;8085;53.472;9.794;2022-08-21T13:57:17;23.50;99.90
15969;DHT22;8085;53.472;9.794;2022-08-21T13:59:46;23.50;99.90
15969;DHT22;8085;53.472;9.794;2022-08-21T14:02:16;23.40;99.90
15969;DHT22;8085;53.472;9.794;2022-08-21T14:04:50;23.30;99.90
15969;DHT22;8085;53.472;9.794;2022-08-21T14:07:20;23.20;99.90
15969;DHT22;8085;53.472;9.794;2022-08-21T14:09:47;23.10;99.90
15969;DHT22;8085;53.472;9.794;2022-08-21T14:12:19;23.00;99.90
15969;DHT22;8085;53.472;9.794;2022-08-21T14:14:53;23.00;99.90
15969;DHT22;8085;53.472;9.794;2022-08-21T14:17:29;23.00;99.90
15969;DHT22;8085;53.472;9.794;2022-08-21T14:19:56;23.00;99.90
15969;DHT22;8085;53.472;9.794;2022-08-21T14:22:28;23.10;99.90
15969;DHT22;8085;53.472;9.794;2022-08-21T14:25:00;23.00;99.90
15969;DHT22;8085;53.472;9.794;2022-08-21T14:27:30;23.00;99.90
15969;DHT22;8085;53.472;9.794;2022-08-21T14:30:01;23.10;99.90
15969;DHT22;8085;53.472;9.794;2022-08-21T14:32:35;23.10;99.90
15969;DHT22;8085;53.472;9.794;2022-08-21T14:35:03;23.10;99.90
15969;DHT22;8085;53.472;9.794;2022-08-21T14:37:30;23.00;99.90
15969;DHT22;8085;53.472;9.794;2022-08-21T14:39:57;22.90;99.90
15969;DHT22;8085;53.472;9.794;2022-08-21T14:42:25;23.00;99.90
15969;DHT22;8085;53.472;9.794;2022-08-21T14:44:54;22.90;99.90
15969;DHT22;8085;53.472;9.794;2022-08-21T14:47:23;22.90;99.90
15969;DHT22;8085;53.472;9.794;2022-08-21T14:49:50;22.80;99.90
15969;DHT22;8085;53.472;9.794;2022-08-21T14:52:19;22.90;99.90
15969;DHT22;8085;53.472;9.794;2022-08-21T14:54:48;23.00;99.90
15969;DHT22;8085;53.472;9.794;2022-08-21T14:57:15;23.00;99.90
15969;DHT22;8085;53.472;9.794;2022-08-21T14:59:42;23.00;99.90
15969;DHT22;8085;53.472;9.794;2022-08-21T15:02:09;23.00;99.90
15969;DHT22;8085;53.472;9.794;2022-08-21T15:04:38;23.00;99.90
15969;DHT22;8085;53.472;9.794;2022-08-21T15:07:05;22.90;99.90
15969;DHT22;8085;53.472;9.794;2022-08-21T15:09:32;22.90;99.90
15969;DHT22;8085;53.472;9.794;2022-08-21T15:12:01;23.00;99.90
15969;DHT22;8085;53.472;9.794;2022-08-21T15:14:30;23.00;99.90
15969;DHT22;8085;53.472;9.794;2022-08-21T15:16:59;23.00;99.90
15969;DHT22;8085;53.472;9.794;2022-08-21T15:19:26;23.00;99.90
15969;DHT22;8085;53.472;9.794;2022-08-21T15:21:56;23.00;99.90
15969;DHT22;8085;53.472;9.794;2022-08-21T15:24:23;22.90;99.90
15969;DHT22;8085;53.472;9.794;2022-08-21T15:26:51;22.90;99.90
15969;DHT22;8085;53.472;9.794;2022-08-21T15:29:18;22.90;99.90
15969;DHT22;8085;53.472;9.794;2022-08-21T15:31:51;22.90;99.90
15969;DHT22;8085;53.472;9.794;2022-08-21T15:34:19;22.80;99.90
15969;DHT22;8085;53.472;9.794;2022-08-21T15:36:46;22.80;99.90
15969;DHT22;8085;53.472;9.794;2022-08-21T15:39:14;22.80;99.90
15969;DHT22;8085;53.472;9.794;2022-08-21T15:41:41;22.80;99.90
15969;DHT22;8085;53.472;9.794;2022-08-21T15:44:09;22.80;99.90
15969;DHT22;8085;53.472;9.794;2022-08-21T15:46:37;22.90;99.90
15969;DHT22;8085;53.472;9.794;2022-08-21T15:49:04;22.90;99.90
15969;DHT22;8085;53.472;9.794;2022-08-21T15:51:31;23.00;99.90
15969;DHT22;8085;53.472;9.794;2022-08-21T15:53:58;22.90;99.90
15969;DHT22;8085;53.472;9.794;2022-08-21T15:56:33;23.00;99.90
15969;DHT22;8085;53.472;9.794;2022-08-21T15:59:03;23.10;99.90
15969;DHT22;8085;53.472;9.794;2022-08-21T16:01:31;23.10;99.90
15969;DHT22;8085;53.472;9.794;2022-08-21T16:03:58;23.10;99.90
15969;DHT22;8085;53.472;9.794;2022-08-21T16:06:25;23.00;99.90